Piedras Negras International Airport
MMPG : now visible

Airfield :











YOU CAN JOIN US ON...

 
LOGIN :

Register | Disclaimer

   EN    FR    IT 

 









Legend :    VFR   Marginal VFR   IFR   Intensive IFR   Very Intensive IFR
Visi :
Ceiling :
>= 8 km
>= 3000ft
5 to 8 km
1000 to 3000 ft
1500m to 5 km
500 to 1000 ft
800 to 1500m
200 to 500 ft
< 800m
< 200 ft
Symbols :   Thunderstorms  Fog  Heavy snow  Heavy precipitations  Wind > 20 kt






- Airport Elevation : 901 ft
- IATA code : PDS


MMPG - Piedras Negras International

EXPIRED METARs :
  • 182040Z 33012KT 6SM BKN025 23/17 A2998 RMK 8/5// HZ

TAF TAF MMPG
Valid from the 18 at 18:00 until the 19 at 18:00 UTC


181620Z 1818/1918 04010KT 6SM HZ BKN015 BKN025 BKN120 BKN200
TEMPO 1820/1824 03015KT
FM190300 01012KT 6SM HZ BKN015 OVC030
BECMG 1908/1909 3SM -RA BR
FM191400 06006KT 1SM -RA BR BKN005 OVC010



MET'MAP, your aeronautical weather chart ! - Copyright ORBIFLY December 2007 - Disclaimer

ORBIFLY MET'MAP TEAM :

Programming & Development : Alexandra Zaïnal
Concept & original design : Baudouin d'Aumeries
Assistance for programming : Marc-Olivier Méhu
Technical & hardware support : Manuel Goepfert

Contact : metmap@orbifly.com




SOURCES & CREDITS :

   NOAA       Earth
Advisory